createdAt,value
2023-02-05T00:01:29.190Z,36.15
2023-02-05T00:06:36.486Z,34.70
2023-02-05T00:11:43.699Z,34.70
2023-02-05T00:16:50.887Z,35.29
2023-02-05T00:21:58.129Z,35.87
2023-02-05T00:27:05.260Z,33.83
2023-02-05T00:32:12.504Z,36.73
2023-02-05T00:37:19.697Z,36.15
2023-02-05T00:42:26.825Z,32.06
2023-02-05T00:47:34.001Z,34.70
2023-02-05T00:52:41.240Z,35.58
2023-02-05T00:57:48.364Z,34.70
2023-02-05T01:02:55.569Z,35.29
2023-02-05T01:08:02.769Z,34.99
2023-02-05T01:13:09.948Z,35.87
2023-02-05T01:18:17.125Z,34.41
2023-02-05T01:23:24.341Z,36.44
2023-02-05T01:28:31.496Z,34.70
2023-02-05T01:33:38.684Z,36.15
2023-02-05T01:38:45.892Z,32.94
2023-02-05T01:43:53.026Z,35.87
2023-02-05T01:49:00.220Z,33.53
2023-02-05T01:54:07.449Z,34.99
2023-02-05T01:59:14.607Z,35.87
2023-02-05T02:04:21.871Z,34.99
2023-02-05T02:09:29.300Z,34.41
2023-02-05T02:14:36.455Z,34.41
2023-02-05T02:19:43.611Z,34.99
2023-02-05T02:24:50.853Z,34.12
2023-02-05T02:29:58.004Z,33.83
2023-02-05T02:35:05.182Z,33.83
2023-02-05T02:40:12.416Z,32.94
2023-02-05T02:45:19.584Z,31.76
2023-02-05T02:50:26.744Z,32.35
2023-02-05T02:55:34.155Z,30.87
2023-02-05T03:00:41.132Z,33.83
2023-02-05T03:05:48.307Z,30.87
2023-02-05T03:10:55.517Z,32.35
2023-02-05T03:16:02.714Z,32.94
2023-02-05T03:21:09.844Z,32.35
2023-02-05T03:26:17.055Z,34.12
2023-02-05T03:31:24.289Z,30.27
2023-02-05T03:36:31.408Z,32.94
2023-02-05T03:41:38.673Z,33.83
2023-02-05T03:46:45.770Z,32.35
2023-02-05T03:51:52.973Z,30.27
2023-02-05T03:57:00.158Z,32.65
2023-02-05T04:02:07.373Z,32.06
2023-02-05T04:07:14.544Z,31.76
2023-02-05T04:12:21.746Z,32.65
2023-02-05T04:17:29.016Z,32.06
2023-02-05T04:22:36.325Z,32.06
2023-02-05T04:27:43.611Z,29.36
2023-02-05T04:32:50.994Z,32.35
2023-02-05T04:37:58.199Z,29.97
2023-02-05T04:43:05.538Z,32.35
2023-02-05T04:48:12.711Z,29.36
2023-02-05T04:53:19.879Z,32.06
2023-02-05T04:58:27.093Z,32.06
2023-02-05T05:03:34.284Z,32.65
2023-02-05T05:08:41.580Z,32.35
2023-02-05T05:13:48.789Z,32.35
2023-02-05T05:18:55.993Z,32.65
2023-02-05T05:24:03.210Z,32.06
2023-02-05T05:29:10.441Z,32.35
2023-02-05T05:34:17.704Z,31.46
2023-02-05T05:39:24.904Z,32.06
2023-02-05T05:44:32.200Z,32.65
2023-02-05T05:49:39.449Z,34.41
2023-02-05T05:54:46.662Z,32.65
2023-02-05T05:59:53.920Z,33.53
2023-02-05T06:05:01.103Z,32.65
2023-02-05T06:10:08.391Z,32.94
2023-02-05T06:15:15.662Z,32.65
2023-02-05T06:20:22.882Z,32.35
2023-02-05T06:25:30.037Z,32.35
2023-02-05T06:30:37.425Z,31.46
2023-02-05T06:35:44.482Z,32.94
2023-02-05T06:40:51.678Z,32.65
2023-02-05T06:45:58.889Z,33.24
2023-02-05T06:51:06.084Z,32.94
2023-02-05T06:56:13.322Z,34.99
2023-02-05T07:01:20.524Z,33.83
2023-02-05T07:06:27.709Z,34.70
2023-02-05T07:11:34.904Z,33.24
2023-02-05T07:16:42.105Z,33.53
2023-02-05T07:21:49.263Z,33.53
2023-02-05T07:26:56.444Z,33.24
2023-02-05T07:32:03.776Z,32.94
2023-02-05T07:37:10.908Z,33.83
2023-02-05T07:42:18.110Z,35.87
2023-02-05T07:47:25.304Z,32.94
2023-02-05T07:52:32.472Z,32.35
2023-02-05T07:57:39.640Z,33.24
2023-02-05T08:02:46.847Z,32.94
2023-02-05T08:07:54.083Z,35.87
2023-02-05T08:13:01.272Z,63.71
2023-02-05T08:18:08.604Z,60.49
2023-02-05T08:23:15.789Z,63.22
2023-02-05T08:28:23.028Z,63.71
2023-02-05T08:33:30.244Z,61.73
2023-02-05T08:38:37.405Z,61.73
2023-02-05T08:43:44.593Z,61.24
2023-02-05T08:48:51.882Z,60.99
2023-02-05T08:53:59.078Z,62.97
2023-02-05T08:59:06.257Z,60.74
2023-02-05T09:04:13.576Z,60.49
2023-02-05T09:09:20.709Z,61.24
2023-02-05T09:14:27.925Z,61.24
2023-02-05T09:19:35.184Z,60.74
2023-02-05T09:24:42.366Z,60.99
2023-02-05T09:29:49.556Z,63.22
2023-02-05T09:34:56.767Z,62.23
2023-02-05T09:40:21.248Z,59.99
2023-02-05T09:45:11.082Z,63.96
2023-02-05T09:50:18.376Z,58.48
2023-02-05T09:55:25.472Z,61.24
2023-02-05T10:00:32.698Z,60.99
2023-02-05T10:05:39.941Z,58.23
2023-02-05T10:10:47.106Z,60.99
2023-02-05T10:15:54.392Z,59.23
2023-02-05T10:21:01.552Z,60.49
2023-02-05T10:26:08.790Z,58.98
2023-02-05T10:31:16.200Z,63.71
2023-02-05T10:36:23.296Z,58.48
2023-02-05T10:41:30.464Z,60.24
2023-02-05T10:46:37.796Z,60.99
2023-02-05T10:51:44.934Z,61.24
2023-02-05T10:56:52.109Z,60.74
2023-02-05T11:01:59.434Z,63.47
2023-02-05T11:07:06.498Z,59.49
2023-02-05T11:12:13.682Z,58.48
2023-02-05T11:17:20.929Z,57.97
2023-02-05T11:22:28.159Z,60.24
2023-02-05T11:27:35.324Z,61.24
2023-02-05T11:32:42.491Z,60.74
2023-02-05T11:37:49.696Z,59.49
2023-02-05T11:42:56.858Z,60.74
2023-02-05T11:48:04.068Z,60.99
2023-02-05T11:53:11.246Z,59.74
2023-02-05T11:58:22.308Z,60.74
2023-02-05T12:03:25.614Z,60.74
2023-02-05T12:08:32.910Z,59.99
2023-02-05T12:13:40.059Z,60.49
2023-02-05T12:18:47.641Z,62.48
2023-02-05T12:23:54.986Z,61.24
2023-02-05T12:29:02.299Z,60.49
2023-02-05T12:34:09.555Z,58.98
2023-02-05T12:39:16.800Z,61.24
2023-02-05T12:44:23.986Z,61.98
2023-02-05T12:49:31.223Z,58.23
2023-02-05T12:54:38.462Z,62.97
2023-02-05T12:59:45.828Z,60.49
2023-02-05T13:04:53.074Z,62.72
2023-02-05T13:10:01.444Z,62.23
2023-02-05T13:15:07.811Z,60.74
2023-02-05T13:20:15.365Z,62.48
2023-02-05T13:25:30.084Z,60.74
2023-02-05T13:30:30.665Z,62.97
2023-02-05T13:35:38.935Z,62.72
2023-02-05T13:40:46.444Z,60.24
2023-02-05T13:45:53.665Z,60.74
2023-02-05T13:51:01.334Z,60.49
2023-02-05T13:56:09.987Z,60.99
2023-02-05T14:01:17.920Z,58.48
2023-02-05T14:06:25.088Z,58.73
2023-02-05T14:11:32.499Z,62.48
2023-02-05T14:16:40.113Z,62.23
2023-02-05T14:21:47.439Z,60.24
2023-02-05T14:26:55.065Z,60.99
2023-02-05T14:32:02.646Z,60.99
2023-02-05T14:37:10.272Z,60.49
2023-02-05T14:42:17.754Z,62.72
2023-02-05T14:47:25.288Z,61.98
2023-02-05T14:52:32.906Z,60.74
2023-02-05T14:57:40.532Z,61.24
2023-02-05T15:02:47.860Z,60.74
2023-02-05T15:07:55.038Z,58.48
2023-02-05T15:13:02.345Z,60.74
2023-02-05T15:18:09.531Z,59.99
2023-02-05T15:23:16.750Z,62.48
2023-02-05T15:28:23.945Z,63.22
2023-02-05T15:33:31.122Z,60.49
2023-02-05T15:38:38.799Z,60.99
2023-02-05T15:43:46.150Z,60.49
2023-02-05T15:48:53.402Z,60.24
2023-02-05T15:54:00.565Z,58.48
2023-02-05T15:59:07.960Z,59.99
2023-02-05T16:04:15.247Z,60.99
2023-02-05T16:09:22.815Z,61.48
2023-02-05T16:14:30.453Z,60.99
2023-02-05T16:19:38.043Z,61.48
2023-02-05T16:24:45.762Z,59.49
2023-02-05T16:29:53.501Z,60.24
2023-02-05T16:35:01.095Z,59.23
2023-02-05T16:40:08.528Z,60.74
2023-02-05T16:45:16.112Z,63.47
2023-02-05T16:50:23.394Z,61.98
2023-02-05T16:55:30.836Z,58.23
2023-02-05T17:00:38.662Z,60.99
2023-02-05T17:05:45.952Z,60.99
2023-02-05T17:10:53.635Z,60.24
2023-02-05T17:16:01.365Z,60.99
2023-02-05T17:21:09.411Z,61.24
2023-02-05T17:26:16.835Z,62.72
2023-02-05T17:31:24.259Z,60.24
2023-02-05T17:36:31.602Z,59.99
2023-02-05T17:41:39.259Z,62.48
2023-02-05T17:46:46.625Z,60.74
2023-02-05T17:51:53.981Z,61.98
2023-02-05T17:57:03.005Z,60.99
2023-02-05T18:02:09.040Z,60.99
2023-02-05T18:07:16.518Z,57.72
2023-02-05T18:12:24.078Z,57.97
2023-02-05T18:17:31.876Z,57.72
2023-02-05T18:22:39.466Z,60.74
2023-02-05T18:27:47.099Z,59.99
2023-02-05T18:32:54.471Z,61.98
2023-02-05T18:38:01.996Z,60.24
2023-02-05T18:43:09.714Z,62.72
2023-02-05T18:48:17.351Z,59.99
2023-02-05T18:53:24.838Z,60.99
2023-02-05T18:58:32.466Z,60.99
2023-02-05T19:03:40.146Z,59.74
2023-02-05T19:08:47.591Z,59.99
2023-02-05T19:13:55.292Z,59.49
2023-02-05T19:19:03.087Z,62.97
2023-02-05T19:24:10.725Z,62.48
2023-02-05T19:29:18.339Z,62.48
2023-02-05T19:34:25.913Z,63.22
2023-02-05T19:39:33.275Z,60.99
2023-02-05T19:44:41.401Z,60.49
2023-02-05T19:49:48.607Z,59.99
2023-02-05T19:54:56.125Z,58.73
2023-02-05T20:00:03.741Z,62.97
2023-02-05T20:05:11.009Z,60.99
2023-02-05T20:10:18.550Z,60.24
2023-02-05T20:15:26.153Z,59.23
2023-02-05T20:20:34.152Z,60.49
2023-02-05T20:25:40.900Z,59.99
2023-02-05T20:30:48.524Z,60.74
2023-02-05T20:35:56.129Z,61.48
2023-02-05T20:41:03.717Z,59.99
2023-02-05T20:46:11.369Z,62.97
2023-02-05T20:51:18.978Z,62.48
2023-02-05T20:56:26.966Z,59.99
2023-02-05T21:01:34.578Z,62.97
2023-02-05T21:06:42.119Z,60.99
2023-02-05T21:11:50.316Z,61.24
2023-02-05T21:16:57.739Z,62.48
2023-02-05T21:22:05.382Z,61.24
2023-02-05T21:27:12.773Z,59.99
2023-02-05T21:32:20.036Z,60.99
2023-02-05T21:37:27.270Z,62.97
2023-02-05T21:42:34.482Z,60.74
2023-02-05T21:47:41.722Z,60.49
2023-02-05T21:52:49.013Z,60.49
2023-02-05T21:57:56.215Z,63.71
2023-02-05T22:03:03.437Z,59.99
2023-02-05T22:08:11.977Z,60.74
2023-02-05T22:13:17.820Z,60.99
2023-02-05T22:18:25.013Z,58.23
2023-02-05T22:23:32.245Z,59.99
2023-02-05T22:28:39.476Z,60.74
2023-02-05T22:33:46.628Z,61.48
2023-02-05T22:38:53.864Z,62.48
2023-02-05T22:44:01.103Z,60.74
2023-02-05T22:49:08.337Z,60.74
2023-02-05T22:54:15.562Z,62.97
2023-02-05T22:59:22.801Z,60.74
2023-02-05T23:04:30.019Z,59.99
2023-02-05T23:09:37.254Z,59.74
2023-02-05T23:14:44.458Z,60.24
2023-02-05T23:19:51.637Z,59.49
2023-02-05T23:24:58.844Z,58.48
2023-02-05T23:30:05.998Z,61.48
2023-02-05T23:35:13.199Z,60.74
2023-02-05T23:40:20.407Z,60.74
2023-02-05T23:45:27.657Z,60.74
2023-02-05T23:50:34.823Z,60.99
2023-02-05T23:55:42.031Z,61.98
